createdAt,value
2017-08-19T00:00:42.427Z,51.20
2017-08-19T00:03:16.892Z,51.70
2017-08-19T00:06:02.278Z,51.70
2017-08-19T00:08:36.709Z,52.00
2017-08-19T00:11:11.337Z,52.10
2017-08-19T00:13:45.942Z,52.10
2017-08-19T00:16:21.121Z,52.20
2017-08-19T00:18:55.690Z,52.20
2017-08-19T00:21:30.203Z,52.40
2017-08-19T00:24:04.755Z,52.70
2017-08-19T00:26:39.272Z,53.00
2017-08-19T00:29:13.731Z,53.30
2017-08-19T00:31:48.305Z,53.50
2017-08-19T00:34:22.997Z,53.70
2017-08-19T00:36:57.538Z,53.80
2017-08-19T00:39:32.130Z,54.00
2017-08-19T00:42:06.329Z,54.20
2017-08-19T00:44:40.939Z,54.30
2017-08-19T00:47:15.513Z,54.40
2017-08-19T00:49:50.005Z,54.50
2017-08-19T00:52:24.453Z,54.50
2017-08-19T00:54:58.917Z,54.50
2017-08-19T00:57:33.494Z,54.70
2017-08-19T01:00:07.590Z,54.80
2017-08-19T01:02:42.274Z,55.20
2017-08-19T01:05:40.811Z,55.20
2017-08-19T01:08:15.678Z,55.20
2017-08-19T01:11:01.066Z,55.40
2017-08-19T01:13:35.549Z,55.30
2017-08-19T01:16:10.150Z,55.40
2017-08-19T01:18:44.418Z,55.30
2017-08-19T01:21:18.829Z,55.30
2017-08-19T01:23:53.517Z,55.30
2017-08-19T01:29:26.962Z,55.20
2017-08-19T01:32:01.522Z,55.50
2017-08-19T01:34:35.978Z,55.30
2017-08-19T01:37:10.573Z,55.40
2017-08-19T01:39:45.258Z,55.50
2017-08-19T01:42:19.806Z,55.50
2017-08-19T01:44:54.371Z,55.70
2017-08-19T01:47:28.973Z,55.60
2017-08-19T01:50:03.506Z,55.70
2017-08-19T01:52:38.138Z,55.80
2017-08-19T01:58:04.290Z,55.80
2017-08-19T02:00:38.863Z,55.90
2017-08-19T02:03:13.454Z,55.90
2017-08-19T02:06:03.817Z,55.70
2017-08-19T02:08:38.426Z,55.70
2017-08-19T02:11:13.077Z,55.70
2017-08-19T02:13:47.686Z,55.60
2017-08-19T02:16:22.265Z,55.70
2017-08-19T02:18:56.803Z,55.70
2017-08-19T02:21:31.396Z,55.90
2017-08-19T02:24:05.826Z,56.00
2017-08-19T02:26:40.366Z,56.00
2017-08-19T02:29:14.923Z,56.10
2017-08-19T02:31:49.542Z,56.30
2017-08-19T02:34:24.037Z,56.50
2017-08-19T02:36:58.638Z,56.50
2017-08-19T02:39:33.046Z,56.50
2017-08-19T02:42:07.638Z,56.60
2017-08-19T02:44:42.418Z,56.50
2017-08-19T02:47:17.029Z,56.40
2017-08-19T02:49:51.671Z,56.40
2017-08-19T02:52:26.230Z,56.50
2017-08-19T02:55:00.838Z,56.70
2017-08-19T02:57:35.365Z,56.60
2017-08-19T03:03:01.666Z,56.90
2017-08-19T03:05:45.126Z,56.90
2017-08-19T03:08:19.677Z,56.90
2017-08-19T03:11:01.558Z,56.90
2017-08-19T03:13:36.174Z,56.80
2017-08-19T03:16:10.734Z,56.70
2017-08-19T03:18:45.173Z,56.70
2017-08-19T03:21:19.726Z,56.70
2017-08-19T03:23:54.314Z,56.50
2017-08-19T03:26:28.802Z,56.50
2017-08-19T03:29:03.429Z,56.70
2017-08-19T03:31:38.026Z,56.90
2017-08-19T03:34:12.542Z,57.00
2017-08-19T03:36:47.069Z,57.30
2017-08-19T03:39:21.522Z,57.30
2017-08-19T03:41:56.077Z,57.30
2017-08-19T03:44:30.697Z,57.40
2017-08-19T03:47:05.201Z,57.40
2017-08-19T03:49:39.738Z,57.30
2017-08-19T03:52:14.361Z,57.50
2017-08-19T03:54:48.794Z,57.40
2017-08-19T03:57:24.055Z,57.60
2017-08-19T03:59:58.614Z,57.70
2017-08-19T04:02:33.066Z,58.00
2017-08-19T04:05:07.634Z,58.40
2017-08-19T04:07:42.298Z,58.30
2017-08-19T04:10:34.093Z,58.50
2017-08-19T04:13:08.813Z,58.60
2017-08-19T04:15:43.330Z,58.50
2017-08-19T04:18:17.906Z,58.60
2017-08-19T04:20:52.549Z,58.60
2017-08-19T04:23:27.081Z,58.50
2017-08-19T04:26:01.742Z,58.50
2017-08-19T04:28:36.250Z,58.50
2017-08-19T04:31:10.790Z,58.40
2017-08-19T04:33:45.301Z,58.10
2017-08-19T04:36:19.878Z,58.10
2017-08-19T04:38:54.461Z,58.20
2017-08-19T04:41:29.270Z,58.00
2017-08-19T04:44:03.717Z,57.90
2017-08-19T04:46:38.317Z,57.50
2017-08-19T04:49:12.938Z,57.60
2017-08-19T04:51:47.434Z,57.60
2017-08-19T04:54:21.939Z,57.60
2017-08-19T04:56:56.573Z,57.60
2017-08-19T04:59:31.096Z,57.40
2017-08-19T05:02:05.738Z,57.30
2017-08-19T05:04:40.301Z,57.10
2017-08-19T05:07:14.878Z,57.20
2017-08-19T05:09:49.411Z,57.30
2017-08-19T05:12:23.918Z,57.40
2017-08-19T05:14:58.337Z,57.50
2017-08-19T05:17:32.851Z,57.40
2017-08-19T05:20:07.418Z,57.30
2017-08-19T05:22:41.922Z,57.50
2017-08-19T05:25:29.056Z,57.40
2017-08-19T05:28:03.602Z,57.20
2017-08-19T05:30:41.722Z,57.10
2017-08-19T05:33:16.157Z,57.30
2017-08-19T05:35:50.734Z,57.20
2017-08-19T05:38:25.261Z,57.20
2017-08-19T05:40:59.797Z,57.50
2017-08-19T05:43:34.372Z,57.40
2017-08-19T05:46:08.905Z,57.60
2017-08-19T05:48:43.466Z,57.50
2017-08-19T05:51:18.082Z,57.50
2017-08-19T05:53:52.610Z,57.70
2017-08-19T05:56:27.177Z,58.20
2017-08-19T05:59:01.720Z,58.30
2017-08-19T06:01:36.197Z,58.80
2017-08-19T06:04:10.613Z,59.20
2017-08-19T06:06:45.197Z,59.40
2017-08-19T06:09:19.685Z,59.60
2017-08-19T06:11:54.273Z,59.90
2017-08-19T06:14:28.713Z,60.30
2017-08-19T06:17:03.269Z,60.50
2017-08-19T06:19:37.821Z,61.80
2017-08-19T06:22:12.414Z,61.30
2017-08-19T06:24:47.002Z,61.30
2017-08-19T06:27:21.598Z,60.90
2017-08-19T06:29:56.295Z,60.80
2017-08-19T06:32:30.959Z,61.20
2017-08-19T06:35:05.410Z,61.10
2017-08-19T06:37:39.954Z,61.20
2017-08-19T06:43:07.973Z,61.70
2017-08-19T06:45:42.530Z,61.90
2017-08-19T06:48:17.002Z,61.80
2017-08-19T06:50:51.543Z,62.00
2017-08-19T06:53:26.106Z,62.00
2017-08-19T06:56:04.520Z,62.60
2017-08-19T06:58:39.086Z,62.50
2017-08-19T07:01:13.343Z,63.00
2017-08-19T07:03:47.921Z,63.30
2017-08-19T07:06:22.123Z,63.60
2017-08-19T07:08:56.691Z,63.90
2017-08-19T07:11:31.270Z,64.20
2017-08-19T07:14:05.711Z,64.20
2017-08-19T07:16:40.372Z,64.50
2017-08-19T07:19:14.829Z,64.50
2017-08-19T07:21:49.476Z,65.00
2017-08-19T07:24:24.125Z,64.90
2017-08-19T07:26:58.690Z,64.90
2017-08-19T07:29:33.470Z,65.00
2017-08-19T07:32:08.049Z,64.90
2017-08-19T07:34:42.625Z,64.40
2017-08-19T07:37:17.222Z,64.00
2017-08-19T07:39:51.725Z,63.90
2017-08-19T07:42:26.281Z,63.40
2017-08-19T07:45:00.800Z,63.40
2017-08-19T07:47:35.411Z,63.20
2017-08-19T07:50:09.863Z,63.00
2017-08-19T07:52:44.525Z,62.90
2017-08-19T07:58:04.250Z,62.20
2017-08-19T08:00:38.773Z,62.00
2017-08-19T08:03:13.210Z,62.00
2017-08-19T08:05:47.838Z,62.30
2017-08-19T08:08:22.478Z,62.30
2017-08-19T08:10:57.037Z,62.70
2017-08-19T08:13:31.651Z,62.90
2017-08-19T08:16:06.265Z,63.60
2017-08-19T08:18:40.677Z,63.90
2017-08-19T08:21:15.338Z,64.80
2017-08-19T08:23:49.926Z,65.80
2017-08-19T08:26:24.413Z,66.60
2017-08-19T08:28:58.853Z,67.80
2017-08-19T08:31:33.490Z,68.90
2017-08-19T08:34:08.090Z,68.40
2017-08-19T08:36:42.646Z,68.60
2017-08-19T08:39:17.201Z,68.60
2017-08-19T08:41:51.773Z,68.70
2017-08-19T08:44:26.223Z,68.80
2017-08-19T08:47:00.722Z,69.30
2017-08-19T08:49:35.310Z,69.70
2017-08-19T08:52:09.898Z,71.00
2017-08-19T08:54:44.345Z,71.00
2017-08-19T08:57:18.790Z,70.90
2017-08-19T08:59:53.450Z,71.50
2017-08-19T09:02:28.031Z,71.60
2017-08-19T09:05:02.702Z,72.00
2017-08-19T09:07:37.661Z,72.40
2017-08-19T09:10:34.166Z,72.30
2017-08-19T09:13:08.735Z,72.70
2017-08-19T09:15:49.289Z,73.10
2017-08-19T09:18:23.744Z,72.90
2017-08-19T09:20:58.386Z,73.20
2017-08-19T09:23:33.034Z,73.00
2017-08-19T09:26:07.586Z,73.10
2017-08-19T09:28:42.228Z,72.50
2017-08-19T09:31:16.794Z,73.20
2017-08-19T09:33:51.396Z,73.30
2017-08-19T09:36:25.973Z,73.00
2017-08-19T09:39:00.585Z,73.60
2017-08-19T09:41:35.122Z,73.60
2017-08-19T09:44:09.614Z,73.90
2017-08-19T09:46:44.057Z,74.20
2017-08-19T09:49:18.638Z,73.80
2017-08-19T09:51:53.181Z,73.60
2017-08-19T09:54:27.628Z,73.30
2017-08-19T09:57:02.175Z,73.90
2017-08-19T09:59:36.833Z,74.20
2017-08-19T10:02:11.343Z,72.10
2017-08-19T10:04:45.870Z,72.10
2017-08-19T10:07:20.417Z,71.90
2017-08-19T10:09:55.250Z,71.50
2017-08-19T10:12:29.802Z,71.40
2017-08-19T10:15:04.275Z,70.30
2017-08-19T10:17:38.923Z,70.10
2017-08-19T10:23:10.594Z,69.80
2017-08-19T10:25:45.185Z,69.00
2017-08-19T10:28:19.619Z,68.60
2017-08-19T10:30:54.177Z,68.40
2017-08-19T10:33:28.885Z,68.60
2017-08-19T10:36:03.459Z,68.20
2017-08-19T10:38:38.030Z,68.10
2017-08-19T10:41:12.659Z,68.00
2017-08-19T10:43:47.168Z,67.90
2017-08-19T10:46:21.671Z,67.70
2017-08-19T10:48:56.138Z,67.30
2017-08-19T10:51:30.738Z,66.70
2017-08-19T10:54:05.124Z,66.50
2017-08-19T10:56:39.694Z,66.50
2017-08-19T10:59:14.278Z,66.50
2017-08-19T11:01:48.845Z,67.00
2017-08-19T11:04:23.542Z,67.50
2017-08-19T11:06:58.044Z,68.20
2017-08-19T11:09:32.605Z,68.20
2017-08-19T11:12:07.186Z,68.70
2017-08-19T11:14:41.645Z,68.70
2017-08-19T11:17:16.214Z,68.80
2017-08-19T11:19:50.690Z,69.10
2017-08-19T11:22:25.214Z,68.30
2017-08-19T11:24:59.754Z,67.90
2017-08-19T11:27:34.322Z,67.50
2017-08-19T11:30:08.779Z,67.50
2017-08-19T11:32:43.417Z,67.90
2017-08-19T11:35:35.078Z,68.10
2017-08-19T11:38:09.489Z,68.40
2017-08-19T11:40:48.969Z,68.70
2017-08-19T11:43:23.385Z,68.10
2017-08-19T11:45:57.922Z,68.50
2017-08-19T11:48:32.337Z,68.80
2017-08-19T11:51:10.375Z,69.20
2017-08-19T11:53:44.805Z,69.00
2017-08-19T11:56:19.378Z,68.70
2017-08-19T11:58:53.990Z,68.20
2017-08-19T12:01:28.589Z,68.00
2017-08-19T12:04:03.186Z,68.10
2017-08-19T12:06:37.782Z,68.20
2017-08-19T12:09:12.274Z,68.00
2017-08-19T12:11:46.890Z,67.70
2017-08-19T12:14:21.454Z,67.90
2017-08-19T12:16:56.070Z,68.10
2017-08-19T12:19:30.582Z,68.40
2017-08-19T12:22:05.158Z,68.90
2017-08-19T12:24:39.805Z,69.40
2017-08-19T12:27:14.396Z,69.60
2017-08-19T12:29:48.842Z,69.40
2017-08-19T12:32:23.358Z,70.30
2017-08-19T12:34:57.813Z,70.40
2017-08-19T12:37:32.366Z,70.40
2017-08-19T12:40:06.938Z,70.40
2017-08-19T12:42:41.483Z,70.60
2017-08-19T12:45:27.984Z,72.10
2017-08-19T12:48:02.624Z,72.50
2017-08-19T12:50:58.021Z,72.50
2017-08-19T12:53:32.953Z,71.90
2017-08-19T12:56:07.501Z,72.50
2017-08-19T12:58:41.921Z,72.10
2017-08-19T13:01:16.417Z,72.30
2017-08-19T13:03:50.837Z,72.20
2017-08-19T13:06:25.413Z,72.30
2017-08-19T13:08:59.848Z,72.40
2017-08-19T13:11:34.434Z,72.60
2017-08-19T13:14:09.026Z,72.90
2017-08-19T13:16:43.478Z,73.10
2017-08-19T13:19:17.889Z,73.00
2017-08-19T13:21:52.792Z,72.80
2017-08-19T13:24:27.338Z,72.90
2017-08-19T13:27:01.982Z,73.10
2017-08-19T13:29:36.412Z,73.70
2017-08-19T13:32:11.014Z,73.20
2017-08-19T13:34:45.470Z,73.50
2017-08-19T13:37:20.029Z,73.80
2017-08-19T13:39:54.486Z,73.90
2017-08-19T13:42:29.146Z,73.90
2017-08-19T13:45:04.306Z,74.00
2017-08-19T13:47:38.814Z,74.00
2017-08-19T13:50:33.803Z,73.60
2017-08-19T13:53:08.982Z,74.30
2017-08-19T13:56:00.665Z,73.40
2017-08-19T13:58:35.297Z,73.70
2017-08-19T14:01:09.869Z,74.10
2017-08-19T14:03:44.434Z,74.20
2017-08-19T14:06:18.982Z,74.10
2017-08-19T14:08:53.465Z,74.00
2017-08-19T14:11:28.033Z,73.80
2017-08-19T14:14:02.654Z,73.80
2017-08-19T14:16:37.196Z,73.70
2017-08-19T14:19:11.806Z,73.40
2017-08-19T14:21:46.399Z,73.50
2017-08-19T14:24:20.958Z,73.40
2017-08-19T14:26:55.590Z,73.30
2017-08-19T14:29:30.235Z,73.30
2017-08-19T14:32:04.778Z,73.00
2017-08-19T14:34:39.437Z,72.00
2017-08-19T14:37:14.029Z,71.60
2017-08-19T14:39:48.619Z,71.10
2017-08-19T14:42:23.127Z,69.90
2017-08-19T14:44:57.629Z,69.80
2017-08-19T14:47:32.173Z,69.50
2017-08-19T14:50:06.634Z,68.90
2017-08-19T14:52:41.184Z,67.80
2017-08-19T14:55:26.698Z,67.40
2017-08-19T14:58:01.234Z,66.80
2017-08-19T15:00:36.090Z,65.90
2017-08-19T15:03:10.669Z,65.30
2017-08-19T15:05:45.258Z,65.30
2017-08-19T15:08:19.849Z,65.10
2017-08-19T15:10:54.422Z,65.40
2017-08-19T15:13:28.920Z,65.00
2017-08-19T15:16:03.482Z,65.00
2017-08-19T15:18:37.977Z,65.20
2017-08-19T15:21:27.357Z,65.60
2017-08-19T15:24:01.957Z,65.30
2017-08-19T15:26:36.476Z,64.90
2017-08-19T15:29:11.054Z,64.80
2017-08-19T15:31:45.630Z,64.70
2017-08-19T15:34:20.186Z,64.70
2017-08-19T15:36:54.753Z,64.30
2017-08-19T15:39:29.353Z,65.00
2017-08-19T15:42:04.027Z,65.40
2017-08-19T15:44:38.433Z,65.80
2017-08-19T15:47:13.012Z,65.60
2017-08-19T15:49:47.534Z,65.80
2017-08-19T15:52:22.141Z,66.10
2017-08-19T15:54:56.786Z,66.40
2017-08-19T15:57:31.358Z,67.00
2017-08-19T16:00:05.925Z,67.60
2017-08-19T16:02:40.341Z,67.90
2017-08-19T16:05:30.878Z,68.20
2017-08-19T16:08:05.558Z,68.50
2017-08-19T16:10:40.439Z,68.50
2017-08-19T16:13:15.137Z,68.20
2017-08-19T16:15:49.561Z,68.20
2017-08-19T16:18:24.159Z,68.10
2017-08-19T16:20:58.671Z,68.40
2017-08-19T16:23:33.137Z,69.00
2017-08-19T16:26:07.744Z,69.00
2017-08-19T16:28:42.927Z,69.40
2017-08-19T16:31:17.418Z,69.60
2017-08-19T16:33:52.071Z,69.30
2017-08-19T16:36:26.543Z,69.30
2017-08-19T16:39:01.125Z,69.80
2017-08-19T16:41:35.753Z,70.10
2017-08-19T16:44:10.366Z,70.10
2017-08-19T16:46:44.969Z,70.30
2017-08-19T16:49:19.501Z,70.40
2017-08-19T16:51:54.118Z,71.00
2017-08-19T16:54:28.677Z,71.30
2017-08-19T16:57:03.293Z,71.20
2017-08-19T16:59:38.128Z,71.20
2017-08-19T17:02:12.752Z,71.60
2017-08-19T17:04:47.273Z,71.80
2017-08-19T17:07:21.891Z,72.10
2017-08-19T17:09:56.474Z,72.40
2017-08-19T17:12:31.068Z,72.60
2017-08-19T17:15:05.589Z,73.20
2017-08-19T17:17:40.270Z,73.50
2017-08-19T17:20:38.696Z,74.40
2017-08-19T17:23:13.155Z,74.60
2017-08-19T17:25:47.640Z,74.70
2017-08-19T17:28:22.246Z,75.10
2017-08-19T17:30:56.841Z,75.90
2017-08-19T17:33:31.526Z,76.10
2017-08-19T17:36:06.084Z,76.20
2017-08-19T17:38:40.530Z,76.50
2017-08-19T17:41:15.131Z,76.60
2017-08-19T17:43:49.662Z,76.40
2017-08-19T17:46:24.229Z,76.80
2017-08-19T17:48:58.763Z,76.90
2017-08-19T17:51:33.260Z,77.40
2017-08-19T17:54:07.769Z,77.50
2017-08-19T17:56:42.313Z,77.60
2017-08-19T17:59:16.763Z,78.10
2017-08-19T18:01:51.326Z,77.70
2017-08-19T18:04:26.044Z,78.20
2017-08-19T18:07:00.646Z,78.70
2017-08-19T18:09:35.077Z,78.50
2017-08-19T18:12:09.619Z,79.00
2017-08-19T18:14:44.090Z,79.00
2017-08-19T18:17:18.642Z,78.40
2017-08-19T18:19:53.217Z,78.50
2017-08-19T18:22:27.753Z,78.40
2017-08-19T18:25:02.368Z,78.10
2017-08-19T18:27:36.967Z,78.50
2017-08-19T18:30:22.360Z,78.00
2017-08-19T18:32:56.957Z,78.40
2017-08-19T18:35:31.550Z,78.50
2017-08-19T18:38:05.982Z,78.30
2017-08-19T18:40:40.421Z,78.40
2017-08-19T18:43:14.942Z,78.50
2017-08-19T18:45:49.454Z,77.70
2017-08-19T18:48:23.877Z,76.80
2017-08-19T18:50:58.503Z,77.00
2017-08-19T18:53:33.078Z,77.00
2017-08-19T18:56:07.649Z,76.80
2017-08-19T18:58:42.141Z,77.10
2017-08-19T19:01:16.754Z,77.50
2017-08-19T19:03:51.161Z,77.30
2017-08-19T19:06:25.717Z,77.50
2017-08-19T19:09:00.530Z,77.60
2017-08-19T19:11:35.162Z,77.80
2017-08-19T19:14:09.790Z,77.70
2017-08-19T19:16:44.399Z,77.10
2017-08-19T19:19:18.918Z,77.60
2017-08-19T19:21:53.482Z,77.80
2017-08-19T19:24:27.930Z,78.40
2017-08-19T19:27:02.514Z,78.30
2017-08-19T19:29:37.142Z,78.50
2017-08-19T19:32:11.659Z,79.20
2017-08-19T19:34:46.230Z,78.90
2017-08-19T19:37:20.770Z,79.10
2017-08-19T19:39:55.327Z,79.60
2017-08-19T19:42:29.914Z,80.10
2017-08-19T19:45:04.507Z,80.40
2017-08-19T19:47:39.206Z,80.50
2017-08-19T19:50:32.402Z,80.40
2017-08-19T19:53:06.762Z,80.80
2017-08-19T19:55:41.544Z,80.60
2017-08-19T19:58:16.042Z,80.50
2017-08-19T20:00:50.678Z,80.10
2017-08-19T20:03:25.198Z,80.30
2017-08-19T20:05:59.882Z,80.00
2017-08-19T20:08:34.389Z,79.60
2017-08-19T20:11:09.053Z,79.00
2017-08-19T20:13:43.513Z,78.60
2017-08-19T20:16:17.799Z,78.90
2017-08-19T20:18:52.373Z,78.30
2017-08-19T20:21:26.902Z,78.40
2017-08-19T20:24:01.401Z,77.50
2017-08-19T20:26:36.106Z,77.40
2017-08-19T20:29:10.656Z,77.50
2017-08-19T20:31:45.262Z,77.50
2017-08-19T20:34:19.807Z,77.50
2017-08-19T20:36:54.391Z,77.20
2017-08-19T20:39:29.039Z,77.50
2017-08-19T20:42:03.574Z,77.50
2017-08-19T20:44:38.101Z,77.60
2017-08-19T20:47:12.714Z,77.60
2017-08-19T20:49:47.254Z,77.60
2017-08-19T20:52:21.915Z,78.00
2017-08-19T20:54:56.474Z,77.90
2017-08-19T20:57:31.058Z,78.10
2017-08-19T21:00:13.513Z,78.40
2017-08-19T21:02:47.969Z,77.80
2017-08-19T21:05:22.939Z,78.20
2017-08-19T21:07:57.475Z,78.20
2017-08-19T21:10:32.077Z,78.60
2017-08-19T21:13:06.653Z,78.10
2017-08-19T21:15:41.259Z,77.90
2017-08-19T21:18:15.817Z,77.70
2017-08-19T21:20:50.347Z,78.00
2017-08-19T21:23:25.112Z,77.90
2017-08-19T21:25:59.797Z,78.60
2017-08-19T21:28:34.457Z,78.60
2017-08-19T21:31:09.059Z,78.30
2017-08-19T21:33:43.618Z,78.60
2017-08-19T21:36:18.194Z,78.30
2017-08-19T21:38:52.649Z,77.90
2017-08-19T21:41:27.247Z,77.70
2017-08-19T21:44:02.486Z,77.30
2017-08-19T21:46:36.997Z,77.10
2017-08-19T21:49:11.630Z,75.90
2017-08-19T21:51:46.242Z,75.70
2017-08-19T21:54:20.637Z,74.80
2017-08-19T21:56:55.186Z,75.90
2017-08-19T21:59:29.626Z,75.50
2017-08-19T22:02:04.202Z,75.10
2017-08-19T22:04:38.901Z,74.70
2017-08-19T22:07:13.478Z,74.70
2017-08-19T22:09:48.082Z,74.80
2017-08-19T22:12:22.499Z,74.70
2017-08-19T22:14:56.997Z,74.10
2017-08-19T22:17:31.581Z,74.00
2017-08-19T22:20:13.665Z,74.50
2017-08-19T22:22:48.230Z,74.60
2017-08-19T22:25:22.765Z,74.50
2017-08-19T22:27:57.518Z,73.90
2017-08-19T22:30:31.973Z,73.50
2017-08-19T22:33:06.447Z,73.40
2017-08-19T22:35:40.985Z,73.30
2017-08-19T22:38:15.609Z,73.70
2017-08-19T22:40:50.185Z,73.60
2017-08-19T22:43:24.782Z,73.70
2017-08-19T22:45:59.352Z,74.20
2017-08-19T22:48:33.970Z,73.70
2017-08-19T22:51:08.506Z,73.60
2017-08-19T22:53:42.928Z,73.70
2017-08-19T22:56:17.410Z,73.70
2017-08-19T22:58:51.993Z,74.00
2017-08-19T23:01:26.533Z,73.40
2017-08-19T23:04:01.094Z,73.40
2017-08-19T23:06:35.662Z,73.20
2017-08-19T23:09:10.121Z,73.10
2017-08-19T23:11:44.686Z,73.00
2017-08-19T23:14:19.305Z,72.50
2017-08-19T23:16:53.900Z,72.70
2017-08-19T23:19:28.373Z,72.80
2017-08-19T23:22:02.954Z,72.20
2017-08-19T23:24:37.413Z,72.20
2017-08-19T23:27:12.038Z,72.10
2017-08-19T23:29:46.570Z,72.20
2017-08-19T23:32:21.137Z,72.20
2017-08-19T23:34:55.574Z,72.10
2017-08-19T23:37:30.189Z,71.90
2017-08-19T23:40:12.773Z,71.90
2017-08-19T23:42:47.417Z,70.80
2017-08-19T23:45:21.955Z,70.90
2017-08-19T23:47:56.602Z,70.50
2017-08-19T23:50:31.106Z,70.50
2017-08-19T23:53:05.757Z,70.60
2017-08-19T23:55:40.351Z,70.00
2017-08-19T23:58:14.918Z,70.60
